Limoeiro Do Ajuru, Brazil
Current Conditions -  °F | °C
As of 11:00 AM on Thursday 27 Nov 2014 (Local Time) from SBBE Reporting Station
Broken Clouds Broken Clouds  
Wind Chill: 86°   Ceiling: 2700
Heat Index: 92°   Visibility: 6mi
Dew Point: 72°   Wind: 17mph
Humidity: 62%   Direction: 60°ENE
Pressure: 29.88"   Gusts: NA
Location:  1.93°S, 49.37°W
Report Text: SBBE 271400Z 06015KT 9999 BKN027 30/22 Q1012
Loading
Personal Weather Stations






























Interactive Weather Map New forecast layout! Learn more

10-Day Weather Forecast

Advertisements
Track Severe Weather on mobile